Time;durP1;ratioP1;P1;durP2;ratioP2;P2;SDS_P1;SDS_P2;PMS_P1;PMS_P2;Temp;Humidity;BMP_temperature;BMP_pressure;BME280_temperature;BME280_humidity;BME280_pressure;Samples;Min_cycle;Max_cycle;Signal;HPM_P1;HPM_P2
2022/06/04 00:01:30;;;;;;;2.90;2.50;;;;;;;;;;4986188;28;20214;-29
2022/06/04 00:03:57;;;;;;;2.90;2.70;;;;;;;;;;4979497;28;20303;-37
2022/06/04 00:06:24;;;;;;;3.60;3.30;;;;;;;;;;4980218;28;20224;-34
2022/06/04 00:08:52;;;;;;;2.97;2.77;;;;;;;;;;4972621;28;20241;-37
2022/06/04 00:16:49;;;;;;;3.80;2.40;;;;;;;;;;4971759;28;20282;-36
2022/06/04 00:19:19;;;;;;;3.53;2.50;;;;;;;;;;4991157;28;20238;-31
2022/06/04 00:21:48;;;;;;;2.90;2.70;;;;;;;;;;4981953;28;20265;-37
2022/06/04 00:24:17;;;;;;;3.30;3.00;;;;;;;;;;4972161;28;20211;-33
2022/06/04 00:26:44;;;;;;;4.83;2.83;;;;;;;;;;4970955;28;20243;-36
2022/06/04 00:29:12;;;;;;;4.57;3.00;;;;;;;;;;4980371;28;20209;-35
2022/06/04 00:31:39;;;;;;;3.37;3.00;;;;;;;;;;4980456;28;20208;-34
2022/06/04 00:34:08;;;;;;;3.70;3.07;;;;;;;;;;4985517;28;20211;-37
2022/06/04 00:36:37;;;;;;;4.80;3.00;;;;;;;;;;4971721;28;20303;-37
2022/06/04 00:39:04;;;;;;;3.00;2.80;;;;;;;;;;4972436;28;20257;-33
2022/06/04 00:41:38;;;;;;;3.40;3.10;;;;;;;;;;4973886;28;20212;-35
2022/06/04 00:44:27;;;;;;;2.93;2.60;;;;;;;;;;4976765;28;20218;-35
2022/06/04 00:47:05;;;;;;;3.40;2.83;;;;;;;;;;4978514;28;20229;-37
2022/06/04 00:49:32;;;;;;;3.60;3.00;;;;;;;;;;4979195;28;20214;-35
2022/06/04 00:52:00;;;;;;;4.57;2.93;;;;;;;;;;4990990;28;20216;-32
2022/06/04 00:54:27;;;;;;;3.83;2.80;;;;;;;;;;4991223;28;20210;-32
2022/06/04 00:57:01;;;;;;;3.10;2.90;;;;;;;;;;4972370;28;20232;-37
2022/06/04 00:59:32;;;;;;;3.40;2.97;;;;;;;;;;4990539;28;20226;-31
2022/06/04 01:02:02;;;;;;;3.30;3.00;;;;;;;;;;4979456;28;20211;-33
2022/06/04 01:04:49;;;;;;;3.27;2.97;;;;;;;;;;4990751;28;20211;-37
2022/06/04 01:07:22;;;;;;;2.93;2.70;;;;;;;;;;4984927;28;20238;-34
2022/06/04 01:09:55;;;;;;;3.00;2.80;;;;;;;;;;4985394;28;20563;-39
2022/06/04 01:12:29;;;;;;;4.77;2.63;;;;;;;;;;4976990;28;20406;-33
2022/06/04 01:15:10;;;;;;;2.73;2.53;;;;;;;;;;4972077;28;20209;-34
2022/06/04 01:17:50;;;;;;;3.17;2.90;;;;;;;;;;4974964;28;20238;-38
2022/06/04 01:20:21;;;;;;;4.17;3.10;;;;;;;;;;4981237;28;20217;-33
2022/06/04 01:22:59;;;;;;;2.93;2.73;;;;;;;;;;4991901;28;20203;-35
2022/06/04 01:25:31;;;;;;;3.00;2.80;;;;;;;;;;4984003;28;20203;-36
2022/06/04 01:28:01;;;;;;;3.70;2.50;;;;;;;;;;4982694;28;20202;-33
2022/06/04 01:30:31;;;;;;;4.00;2.87;;;;;;;;;;4981849;28;20218;-34
2022/06/04 01:33:00;;;;;;;2.97;2.70;;;;;;;;;;4979759;28;20211;-34
2022/06/04 01:35:30;;;;;;;3.10;2.80;;;;;;;;;;4978386;28;20200;-38
2022/06/04 01:37:59;;;;;;;2.87;2.57;;;;;;;;;;4971129;28;20230;-36
2022/06/04 01:43:16;;;;;;;2.80;2.60;;;;;;;;;;4984326;28;20196;-33
2022/06/04 01:45:45;;;;;;;3.10;2.90;;;;;;;;;;4978939;28;20231;-32
2022/06/04 01:48:14;;;;;;;2.97;2.77;;;;;;;;;;4979835;28;20213;-35
2022/06/04 01:50:42;;;;;;;2.80;2.60;;;;;;;;;;4980735;28;20320;-38
2022/06/04 01:53:10;;;;;;;2.67;2.47;;;;;;;;;;4970743;28;20207;-30
2022/06/04 01:55:41;;;;;;;2.23;2.13;;;;;;;;;;4969003;28;20214;-37
2022/06/04 01:58:11;;;;;;;2.97;2.77;;;;;;;;;;4984079;28;20209;-33
2022/06/04 02:00:42;;;;;;;3.17;2.70;;;;;;;;;;4968818;28;20225;-36
2022/06/04 02:03:11;;;;;;;2.93;2.63;;;;;;;;;;4983201;28;20210;-30
2022/06/04 02:05:40;;;;;;;2.43;2.33;;;;;;;;;;4974243;28;20223;-35
2022/06/04 02:08:09;;;;;;;2.30;2.07;;;;;;;;;;4992593;28;20209;-33
2022/06/04 02:10:37;;;;;;;2.80;2.60;;;;;;;;;;4981309;28;20218;-32
2022/06/04 02:13:06;;;;;;;4.53;2.70;;;;;;;;;;4988976;28;20202;-33
2022/06/04 02:15:35;;;;;;;2.90;2.33;;;;;;;;;;4991952;28;20246;-35
2022/06/04 02:18:04;;;;;;;3.10;2.80;;;;;;;;;;4981601;28;20197;-33
2022/06/04 02:20:31;;;;;;;3.10;2.87;;;;;;;;;;4981781;28;20233;-38
2022/06/04 02:22:59;;;;;;;2.70;2.47;;;;;;;;;;4993690;28;20205;-33
2022/06/04 02:25:26;;;;;;;2.43;2.23;;;;;;;;;;4982619;28;20214;-34
2022/06/04 02:27:54;;;;;;;2.73;2.30;;;;;;;;;;4981679;28;20264;-37
2022/06/04 02:30:21;;;;;;;3.00;2.70;;;;;;;;;;4988716;28;20206;-34
2022/06/04 02:33:01;;;;;;;3.27;2.97;;;;;;;;;;4980245;28;20327;-37
2022/06/04 02:35:32;;;;;;;2.57;2.47;;;;;;;;;;4977111;28;20304;-34
2022/06/04 02:38:04;;;;;;;2.47;2.27;;;;;;;;;;4973388;28;20215;-37
2022/06/04 02:40:33;;;;;;;2.40;2.20;;;;;;;;;;4980735;28;20229;-30
2022/06/04 02:43:04;;;;;;;2.87;2.60;;;;;;;;;;4980797;28;20301;-31
2022/06/04 02:45:34;;;;;;;2.80;2.60;;;;;;;;;;4972014;28;20207;-33
2022/06/04 02:48:02;;;;;;;2.97;2.77;;;;;;;;;;4972368;28;20206;-36
2022/06/04 02:50:33;;;;;;;3.43;3.10;;;;;;;;;;4988738;28;20206;-38
2022/06/04 02:53:01;;;;;;;3.53;3.23;;;;;;;;;;4992988;28;20210;-30
2022/06/04 02:55:31;;;;;;;3.03;2.83;;;;;;;;;;4987003;28;20217;-31
2022/06/04 02:58:01;;;;;;;3.70;3.20;;;;;;;;;;4981095;28;20212;-39
2022/06/04 03:00:30;;;;;;;3.73;2.53;;;;;;;;;;4972935;28;20309;-32
2022/06/04 03:02:57;;;;;;;3.17;2.87;;;;;;;;;;4977947;28;20209;-38
2022/06/04 03:05:25;;;;;;;5.50;2.83;;;;;;;;;;4984114;28;20209;-38
2022/06/04 03:07:55;;;;;;;2.90;2.70;;;;;;;;;;4973743;28;20207;-35
2022/06/04 03:10:23;;;;;;;3.93;2.93;;;;;;;;;;4975175;28;20212;-30
2022/06/04 03:12:52;;;;;;;5.17;2.87;;;;;;;;;;4980409;28;20206;-34
2022/06/04 03:15:20;;;;;;;2.63;2.43;;;;;;;;;;4973068;28;20212;-34
2022/06/04 03:17:48;;;;;;;4.47;2.87;;;;;;;;;;4971364;28;20222;-32
2022/06/04 03:20:16;;;;;;;2.80;2.60;;;;;;;;;;4980107;28;20219;-31
2022/06/04 03:22:43;;;;;;;2.77;2.57;;;;;;;;;;4973231;28;20290;-31
2022/06/04 03:25:12;;;;;;;5.70;2.73;;;;;;;;;;4978304;28;20205;-31
2022/06/04 03:27:39;;;;;;;3.00;2.70;;;;;;;;;;4981500;28;20233;-32
2022/06/04 03:30:07;;;;;;;2.57;2.37;;;;;;;;;;4974811;28;20209;-33
2022/06/04 03:32:34;;;;;;;2.67;2.47;;;;;;;;;;4978404;28;20210;-29
2022/06/04 03:35:02;;;;;;;3.13;2.83;;;;;;;;;;4978937;28;20224;-37
2022/06/04 03:37:29;;;;;;;3.67;2.70;;;;;;;;;;4978755;28;20233;-31
2022/06/04 03:39:56;;;;;;;2.93;2.43;;;;;;;;;;4976232;28;20234;-36
2022/06/04 03:42:24;;;;;;;2.70;2.50;;;;;;;;;;4980826;28;20210;-32
2022/06/04 03:44:51;;;;;;;5.03;2.80;;;;;;;;;;4977719;28;20218;-37
2022/06/04 03:47:19;;;;;;;2.83;2.60;;;;;;;;;;4981600;28;20234;-35
2022/06/04 03:49:46;;;;;;;4.57;2.27;;;;;;;;;;4983480;28;20225;-32
2022/06/04 03:52:15;;;;;;;3.20;2.90;;;;;;;;;;4980557;28;20241;-33
2022/06/04 03:54:55;;;;;;;2.77;2.57;;;;;;;;;;4978365;28;20207;-35
2022/06/04 03:57:41;;;;;;;4.23;2.80;;;;;;;;;;4982273;28;20232;-37
2022/06/04 04:00:13;;;;;;;2.80;2.60;;;;;;;;;;4988501;28;20221;-35
2022/06/04 04:02:40;;;;;;;3.73;3.00;;;;;;;;;;4977105;28;20199;-39
2022/06/04 04:05:08;;;;;;;3.03;2.50;;;;;;;;;;4987100;28;20260;-35
2022/06/04 04:07:36;;;;;;;3.77;2.70;;;;;;;;;;4978880;28;20242;-32
2022/06/04 04:10:03;;;;;;;2.87;2.67;;;;;;;;;;4978910;28;20207;-36
2022/06/04 04:12:30;;;;;;;4.17;2.47;;;;;;;;;;4982493;28;20202;-35
2022/06/04 04:14:57;;;;;;;4.10;2.70;;;;;;;;;;4994337;28;20214;-35
2022/06/04 04:17:26;;;;;;;5.87;2.87;;;;;;;;;;4984371;28;20229;-34
2022/06/04 04:19:53;;;;;;;5.07;3.00;;;;;;;;;;4982818;28;20225;-35
2022/06/04 04:22:22;;;;;;;3.10;2.60;;;;;;;;;;4981088;28;20208;-40
2022/06/04 04:24:49;;;;;;;3.20;2.90;;;;;;;;;;4980077;28;20223;-33
2022/06/04 04:27:17;;;;;;;3.40;2.90;;;;;;;;;;4981637;28;20240;-37
2022/06/04 04:29:44;;;;;;;2.80;2.60;;;;;;;;;;4977873;28;20214;-31
2022/06/04 04:32:12;;;;;;;3.20;2.57;;;;;;;;;;4979864;28;20260;-29
2022/06/04 04:34:40;;;;;;;2.63;2.43;;;;;;;;;;4983969;28;20207;-30
2022/06/04 04:37:07;;;;;;;2.47;2.20;;;;;;;;;;4973989;28;20318;-35
2022/06/04 04:39:34;;;;;;;2.93;2.70;;;;;;;;;;4981153;28;20232;-36
2022/06/04 04:42:01;;;;;;;2.83;2.60;;;;;;;;;;4974502;28;20220;-36
2022/06/04 04:44:28;;;;;;;3.60;2.53;;;;;;;;;;4981107;28;20222;-39
2022/06/04 04:46:56;;;;;;;2.70;2.50;;;;;;;;;;4978517;28;20224;-32
2022/06/04 04:49:23;;;;;;;4.97;3.10;;;;;;;;;;4990359;28;20205;-38
2022/06/04 04:51:52;;;;;;;3.07;2.80;;;;;;;;;;4982452;28;20219;-33
2022/06/04 04:54:19;;;;;;;3.40;2.50;;;;;;;;;;4974617;28;20214;-31
2022/06/04 04:56:46;;;;;;;7.17;3.37;;;;;;;;;;4982601;28;20231;-37
2022/06/04 04:59:13;;;;;;;4.37;3.10;;;;;;;;;;4973883;28;20218;-39
2022/06/04 05:01:41;;;;;;;4.93;3.33;;;;;;;;;;4973950;28;20219;-32
2022/06/04 05:04:08;;;;;;;3.80;2.80;;;;;;;;;;4976400;28;20246;-35
2022/06/04 05:06:37;;;;;;;3.73;3.00;;;;;;;;;;4982545;28;20226;-31
2022/06/04 05:09:06;;;;;;;4.13;2.90;;;;;;;;;;4987411;28;20203;-39
2022/06/04 05:11:36;;;;;;;2.80;2.63;;;;;;;;;;4978909;28;20213;-37
2022/06/04 05:14:04;;;;;;;2.93;2.63;;;;;;;;;;4985968;28;20216;-32
2022/06/04 05:16:33;;;;;;;5.40;3.30;;;;;;;;;;4989341;28;20242;-34
2022/06/04 05:19:01;;;;;;;4.50;3.40;;;;;;;;;;4985553;28;20233;-34
2022/06/04 05:21:38;;;;;;;3.93;3.00;;;;;;;;;;4988714;28;20233;-37
2022/06/04 05:24:07;;;;;;;3.93;3.43;;;;;;;;;;4992809;28;20214;-33
2022/06/04 05:26:35;;;;;;;3.83;2.90;;;;;;;;;;4980794;28;20238;-35
2022/06/04 05:29:02;;;;;;;4.43;3.07;;;;;;;;;;4986810;28;20219;-36
2022/06/04 05:31:29;;;;;;;4.00;3.27;;;;;;;;;;4984976;28;20210;-36
2022/06/04 05:33:57;;;;;;;3.83;3.30;;;;;;;;;;4982386;28;20211;-34
2022/06/04 05:36:24;;;;;;;4.17;3.50;;;;;;;;;;4978280;28;20222;-33
2022/06/04 05:38:51;;;;;;;4.63;3.40;;;;;;;;;;4989850;28;20232;-36
2022/06/04 05:41:20;;;;;;;4.03;3.33;;;;;;;;;;4988001;28;20241;-32
2022/06/04 05:43:48;;;;;;;4.40;3.90;;;;;;;;;;4985116;28;20282;-38
2022/06/04 05:46:19;;;;;;;5.00;3.93;;;;;;;;;;4977394;28;20218;-35
2022/06/04 05:51:17;;;;;;;3.33;3.03;;;;;;;;;;5003668;28;20217;-38
2022/06/04 05:53:44;;;;;;;3.53;3.23;;;;;;;;;;5008755;28;20212;-39
2022/06/04 05:56:12;;;;;;;5.10;3.63;;;;;;;;;;4998676;28;20227;-38
2022/06/04 05:58:41;;;;;;;6.80;3.77;;;;;;;;;;4981202;28;20214;-38
2022/06/04 06:01:08;;;;;;;4.17;3.77;;;;;;;;;;4983187;28;20249;-38
2022/06/04 06:03:35;;;;;;;3.80;3.50;;;;;;;;;;4978154;28;20258;-39
2022/06/04 06:06:03;;;;;;;4.80;4.07;;;;;;;;;;4986419;28;20230;-39
2022/06/04 06:08:30;;;;;;;4.27;3.93;;;;;;;;;;4989275;28;20217;-34
2022/06/04 06:10:58;;;;;;;5.10;4.60;;;;;;;;;;4978478;28;20266;-37
2022/06/04 06:13:26;;;;;;;4.70;4.30;;;;;;;;;;4975123;28;20204;-37
2022/06/04 06:15:54;;;;;;;4.30;3.90;;;;;;;;;;4976214;28;20237;-38
2022/06/04 06:18:21;;;;;;;4.47;3.83;;;;;;;;;;4986581;28;20211;-39
2022/06/04 06:20:48;;;;;;;4.17;3.80;;;;;;;;;;4986458;28;20225;-36
2022/06/04 06:23:15;;;;;;;4.57;3.77;;;;;;;;;;4996280;28;20217;-36
2022/06/04 06:25:42;;;;;;;4.90;3.60;;;;;;;;;;4989949;28;20485;-36
2022/06/04 06:28:09;;;;;;;4.23;3.83;;;;;;;;;;4990730;28;20242;-39
2022/06/04 06:30:36;;;;;;;5.23;3.80;;;;;;;;;;4983212;28;20206;-38
2022/06/04 06:33:05;;;;;;;5.93;3.43;;;;;;;;;;4973209;28;20298;-36
2022/06/04 06:35:32;;;;;;;4.57;3.77;;;;;;;;;;4981124;28;20202;-39
2022/06/04 06:37:59;;;;;;;4.10;3.60;;;;;;;;;;4974237;28;20217;-36
2022/06/04 06:40:26;;;;;;;9.43;4.03;;;;;;;;;;4972474;28;20238;-41
2022/06/04 06:42:53;;;;;;;4.37;3.47;;;;;;;;;;4971755;28;20210;-37
2022/06/04 06:45:21;;;;;;;5.50;3.93;;;;;;;;;;4979445;28;20217;-37
2022/06/04 06:47:48;;;;;;;6.13;4.33;;;;;;;;;;4975105;28;20210;-36
2022/06/04 06:50:17;;;;;;;4.03;3.63;;;;;;;;;;4981203;28;20208;-36
2022/06/04 06:52:44;;;;;;;4.37;3.60;;;;;;;;;;4991325;28;20676;-37
2022/06/04 06:55:12;;;;;;;6.13;3.80;;;;;;;;;;4979637;28;20217;-38
2022/06/04 06:57:39;;;;;;;6.10;4.20;;;;;;;;;;4983993;28;20221;-36
2022/06/04 07:00:07;;;;;;;6.03;3.70;;;;;;;;;;4973179;28;20562;-36
2022/06/04 07:02:34;;;;;;;9.90;4.30;;;;;;;;;;4972053;28;20206;-38
2022/06/04 07:05:01;;;;;;;6.47;3.93;;;;;;;;;;4977252;28;20268;-38
2022/06/04 07:07:30;;;;;;;4.87;4.00;;;;;;;;;;4977705;28;20223;-37
2022/06/04 07:09:57;;;;;;;4.87;4.37;;;;;;;;;;4973870;28;20206;-36
2022/06/04 07:12:24;;;;;;;3.60;3.30;;;;;;;;;;4977997;28;20222;-38
2022/06/04 07:14:51;;;;;;;3.80;3.40;;;;;;;;;;4976232;28;20215;-38
2022/06/04 07:17:18;;;;;;;8.43;3.53;;;;;;;;;;4986198;28;20228;-37
2022/06/04 07:19:45;;;;;;;8.03;4.20;;;;;;;;;;4978768;28;20241;-35
2022/06/04 07:22:13;;;;;;;4.43;4.03;;;;;;;;;;4980634;28;20210;-38
2022/06/04 07:24:41;;;;;;;4.30;3.90;;;;;;;;;;4971566;28;20210;-38
2022/06/04 07:27:09;;;;;;;4.30;3.80;;;;;;;;;;4981364;28;20230;-37
2022/06/04 07:29:37;;;;;;;6.37;4.30;;;;;;;;;;4975079;28;20345;-37
2022/06/04 07:32:04;;;;;;;5.20;3.80;;;;;;;;;;4974886;28;20296;-41
2022/06/04 07:34:32;;;;;;;4.30;3.87;;;;;;;;;;4983711;28;20221;-34
2022/06/04 07:36:59;;;;;;;4.80;3.97;;;;;;;;;;4980468;28;20226;-36
2022/06/04 07:39:27;;;;;;;4.33;3.67;;;;;;;;;;4978097;28;20213;-36
2022/06/04 07:41:55;;;;;;;5.47;4.23;;;;;;;;;;4980439;28;20221;-40
2022/06/04 07:44:24;;;;;;;6.00;4.00;;;;;;;;;;4986963;28;20264;-38
2022/06/04 07:46:51;;;;;;;4.27;3.87;;;;;;;;;;4984765;28;20233;-38
2022/06/04 07:49:19;;;;;;;4.60;4.20;;;;;;;;;;4979353;28;20222;-39
2022/06/04 07:51:47;;;;;;;4.63;4.13;;;;;;;;;;4972422;28;20748;-38
2022/06/04 07:54:15;;;;;;;5.43;4.27;;;;;;;;;;4972565;28;20203;-37
2022/06/04 07:56:42;;;;;;;4.57;4.10;;;;;;;;;;4977629;28;20345;-38
2022/06/04 07:59:13;;;;;;;7.33;3.67;;;;;;;;;;4975196;28;20199;-34
2022/06/04 08:01:40;;;;;;;4.07;3.77;;;;;;;;;;4977425;28;20246;-37
2022/06/04 08:04:08;;;;;;;4.63;3.50;;;;;;;;;;4982431;28;20217;-34
2022/06/04 08:06:35;;;;;;;4.67;3.70;;;;;;;;;;4972957;28;20227;-38
2022/06/04 08:09:02;;;;;;;4.60;4.10;;;;;;;;;;4975590;28;20207;-39
2022/06/04 08:11:34;;;;;;;4.50;4.10;;;;;;;;;;4984213;28;20210;-37
2022/06/04 08:14:05;;;;;;;13.23;4.30;;;;;;;;;;4979811;28;20304;-34
2022/06/04 08:16:34;;;;;;;4.93;3.93;;;;;;;;;;4971369;28;20250;-38
2022/06/04 08:19:01;;;;;;;8.93;4.47;;;;;;;;;;4980548;28;20426;-36
2022/06/04 08:21:28;;;;;;;4.20;3.90;;;;;;;;;;4988246;28;20220;-37
2022/06/04 08:23:55;;;;;;;4.73;3.80;;;;;;;;;;4985799;28;20204;-39
2022/06/04 08:26:22;;;;;;;4.43;4.03;;;;;;;;;;4972083;28;20227;-38
2022/06/04 08:28:50;;;;;;;3.93;3.60;;;;;;;;;;4980304;28;20292;-36
2022/06/04 08:31:17;;;;;;;6.50;4.03;;;;;;;;;;4986545;28;20213;-35
2022/06/04 08:33:46;;;;;;;4.43;3.83;;;;;;;;;;4975189;28;20306;-39
2022/06/04 08:36:16;;;;;;;5.70;3.97;;;;;;;;;;4988037;28;20304;-38
2022/06/04 08:38:43;;;;;;;4.67;3.73;;;;;;;;;;4984116;28;20292;-39
2022/06/04 08:41:21;;;;;;;3.93;3.53;;;;;;;;;;4987894;28;20227;-38
2022/06/04 08:43:51;;;;;;;4.63;4.07;;;;;;;;;;4979638;28;20215;-37
2022/06/04 08:46:21;;;;;;;4.50;4.10;;;;;;;;;;4978490;28;20230;-40
2022/06/04 08:48:50;;;;;;;6.90;4.20;;;;;;;;;;4974605;28;20215;-38
2022/06/04 08:51:21;;;;;;;4.07;3.77;;;;;;;;;;4985110;28;20203;-37
2022/06/04 08:53:50;;;;;;;4.43;3.60;;;;;;;;;;4972685;28;20212;-38
2022/06/04 08:59:06;;;;;;;6.57;4.53;;;;;;;;;;4980623;28;20202;-38
2022/06/04 09:01:36;;;;;;;4.33;3.93;;;;;;;;;;4979518;28;20543;-39
2022/06/04 09:04:10;;;;;;;4.03;3.73;;;;;;;;;;4972220;28;20259;-38
2022/06/04 09:06:41;;;;;;;4.93;4.20;;;;;;;;;;4974074;28;20224;-34
2022/06/04 09:09:11;;;;;;;5.67;3.90;;;;;;;;;;4980860;28;20201;-35
2022/06/04 09:11:44;;;;;;;5.00;4.50;;;;;;;;;;4979818;28;20207;-39
2022/06/04 09:14:35;;;;;;;4.30;3.90;;;;;;;;;;4980774;28;20286;-37
2022/06/04 09:17:04;;;;;;;4.50;4.10;;;;;;;;;;4966892;28;20228;-34
2022/06/04 09:19:35;;;;;;;4.20;3.60;;;;;;;;;;4984419;28;20212;-39
2022/06/04 09:22:03;;;;;;;4.70;3.97;;;;;;;;;;4985900;28;20223;-40
2022/06/04 09:24:31;;;;;;;4.93;3.63;;;;;;;;;;4988559;28;20212;-38
2022/06/04 09:27:04;;;;;;;5.20;4.70;;;;;;;;;;4980254;28;20336;-40
2022/06/04 09:29:36;;;;;;;5.20;4.23;;;;;;;;;;4972517;28;20208;-36
2022/06/04 09:32:08;;;;;;;4.10;3.70;;;;;;;;;;4970047;28;20199;-37
2022/06/04 09:34:38;;;;;;;7.55;4.20;;;;;;;;;;4978633;28;20296;-37
2022/06/04 09:37:06;;;;;;;3.90;3.60;;;;;;;;;;4986631;28;20238;-34
2022/06/04 09:39:34;;;;;;;3.55;3.10;;;;;;;;;;4978303;28;20208;-36
2022/06/04 09:42:02;;;;;;;4.05;3.25;;;;;;;;;;4972320;28;20230;-37
2022/06/04 09:44:30;;;;;;;4.15;3.75;;;;;;;;;;4971232;28;20225;-37
2022/06/04 09:47:09;;;;;;;4.13;3.70;;;;;;;;;;4973150;28;20267;-40
2022/06/04 09:49:40;;;;;;;4.20;3.53;;;;;;;;;;4988472;28;20215;-38
2022/06/04 09:52:15;;;;;;;4.18;3.78;;;;;;;;;;4975781;28;20226;-39
2022/06/04 09:54:44;;;;;;;9.80;3.75;;;;;;;;;;4975081;28;20223;-39
2022/06/04 09:57:25;;;;;;;4.43;3.67;;;;;;;;;;4976485;28;20275;-39
2022/06/04 09:59:54;;;;;;;4.82;3.70;;;;;;;;;;4981405;28;20322;-37
2022/06/04 10:02:21;;;;;;;5.65;3.92;;;;;;;;;;4979226;28;20231;-36
2022/06/04 10:04:51;;;;;;;5.57;3.58;;;;;;;;;;4974286;28;20204;-37
2022/06/04 10:07:20;;;;;;;7.85;3.78;;;;;;;;;;4975825;28;20232;-36
2022/06/04 10:09:57;;;;;;;5.65;4.38;;;;;;;;;;4971050;28;20216;-36
2022/06/04 10:13:42;;;;;;;4.28;3.97;;;;;;;;;;4979598;28;20258;-39
2022/06/04 10:15:21;;;;;;;4.03;3.67;;;;;;;;;;4991798;28;20231;-38
2022/06/04 10:17:58;;;;;;;4.90;3.53;;;;;;;;;;4983019;28;20211;-39
2022/06/04 10:20:27;;;;;;;4.43;4.03;;;;;;;;;;4983829;28;20197;-38
2022/06/04 10:22:54;;;;;;;4.20;3.90;;;;;;;;;;4991890;28;20290;-36
2022/06/04 10:25:25;;;;;;;6.63;3.90;;;;;;;;;;4992386;28;20212;-39
2022/06/04 10:27:55;;;;;;;4.33;3.70;;;;;;;;;;4984920;28;20298;-36
2022/06/04 10:30:25;;;;;;;4.10;3.80;;;;;;;;;;4978960;28;20219;-40
2022/06/04 10:33:07;;;;;;;4.23;3.73;;;;;;;;;;4979900;28;20266;-39
2022/06/04 10:35:42;;;;;;;5.87;4.67;;;;;;;;;;4976525;28;20210;-37
2022/06/04 10:38:26;;;;;;;5.47;4.17;;;;;;;;;;4996270;28;20209;-41
2022/06/04 10:41:02;;;;;;;4.90;4.47;;;;;;;;;;4990937;28;20676;-38
2022/06/04 10:43:40;;;;;;;5.40;4.20;;;;;;;;;;4973868;28;20242;-35
2022/06/04 10:46:12;;;;;;;5.00;4.60;;;;;;;;;;4981675;28;20235;-36
2022/06/04 10:48:46;;;;;;;4.87;4.37;;;;;;;;;;4974871;28;20227;-35
2022/06/04 10:51:27;;;;;;;6.07;4.50;;;;;;;;;;4987528;28;20211;-38
2022/06/04 10:53:57;;;;;;;4.87;4.47;;;;;;;;;;4973258;28;20214;-36
2022/06/04 10:56:26;;;;;;;5.20;4.80;;;;;;;;;;4977735;28;20738;-37
2022/06/04 10:58:59;;;;;;;5.63;5.03;;;;;;;;;;4980900;28;20208;-38
2022/06/04 11:01:28;;;;;;;6.03;4.30;;;;;;;;;;4986067;28;20689;-37
2022/06/04 11:04:05;;;;;;;4.93;4.53;;;;;;;;;;4984326;28;20208;-36
2022/06/04 11:06:35;;;;;;;5.33;4.73;;;;;;;;;;4993363;28;20342;-37
2022/06/04 11:09:04;;;;;;;5.57;4.87;;;;;;;;;;4989180;28;20210;-39
2022/06/04 11:11:34;;;;;;;5.37;4.87;;;;;;;;;;4988757;28;20204;-39
2022/06/04 11:14:04;;;;;;;5.83;5.00;;;;;;;;;;4987745;28;20239;-37
2022/06/04 11:16:35;;;;;;;6.63;6.03;;;;;;;;;;4987025;28;20227;-40
2022/06/04 11:19:08;;;;;;;9.95;7.35;;;;;;;;;;4987053;28;20712;-35
2022/06/04 11:21:38;;;;;;;7.53;6.83;;;;;;;;;;4978813;28;20212;-39
2022/06/04 11:24:11;;;;;;;8.33;7.53;;;;;;;;;;4976196;28;20487;-38
2022/06/04 11:26:42;;;;;;;9.95;8.95;;;;;;;;;;4983571;28;20231;-35
2022/06/04 11:29:11;;;;;;;11.10;9.93;;;;;;;;;;4986252;28;20196;-38
2022/06/04 11:31:57;;;;;;;10.10;9.05;;;;;;;;;;4978291;28;20208;-35
2022/06/04 11:34:39;;;;;;;9.80;8.90;;;;;;;;;;4989444;28;20203;-38
2022/06/04 11:37:11;;;;;;;11.50;10.23;;;;;;;;;;4982521;28;20236;-36
2022/06/04 11:39:48;;;;;;;12.30;10.93;;;;;;;;;;4975651;28;20185;-37
2022/06/04 11:42:19;;;;;;;12.37;11.13;;;;;;;;;;4977806;28;20233;-39
2022/06/04 11:45:08;;;;;;;14.10;11.57;;;;;;;;;;4977165;28;20196;-39
2022/06/04 11:50:14;;;;;;;12.30;11.00;;;;;;;;;;5011019;23;20238;-28
2022/06/04 11:52:45;;;;;;;11.82;10.63;;;;;;;;;;4989200;28;20210;-24
2022/06/04 11:55:27;;;;;;;10.88;9.80;;;;;;;;;;4994345;28;20282;-31
2022/06/04 11:58:00;;;;;;;13.65;10.35;;;;;;;;;;4969430;28;20207;-29
2022/06/04 12:00:30;;;;;;;11.93;10.35;;;;;;;;;;4975188;28;20200;-30
2022/06/04 12:03:02;;;;;;;9.45;8.45;;;;;;;;;;4965229;28;20231;-30
2022/06/04 12:05:35;;;;;;;11.38;8.95;;;;;;;;;;4963405;28;20196;-28
2022/06/04 12:08:06;;;;;;;9.27;8.27;;;;;;;;;;4955262;29;20212;-29
2022/06/04 12:10:49;;;;;;;10.30;9.30;;;;;;;;;;4954912;28;20273;-27
2022/06/04 12:13:19;;;;;;;8.63;7.72;;;;;;;;;;4960822;28;20411;-32
2022/06/04 12:15:51;;;;;;;7.45;6.75;;;;;;;;;;4971622;28;20275;-30
2022/06/04 12:18:23;;;;;;;7.07;6.47;;;;;;;;;;4972939;28;20216;-28
2022/06/04 12:26:28;;;;;;;7.60;5.90;;;;;;;;;;4956509;28;20228;-30
2022/06/04 12:28:57;;;;;;;6.65;6.05;;;;;;;;;;4955595;28;20235;-28
2022/06/04 12:31:34;;;;;;;6.80;6.20;;;;;;;;;;4954538;28;20232;-29
2022/06/04 12:34:02;;;;;;;7.22;6.53;;;;;;;;;;4954507;28;20204;-30
2022/06/04 12:36:31;;;;;;;7.07;6.38;;;;;;;;;;4962427;28;20225;-29
2022/06/04 12:39:00;;;;;;;7.75;6.15;;;;;;;;;;4955372;28;20235;-32
2022/06/04 12:41:38;;;;;;;6.80;6.10;;;;;;;;;;4953311;28;20209;-28
2022/06/04 12:44:07;;;;;;;8.27;6.22;;;;;;;;;;4962576;28;20225;-29
2022/06/04 12:46:35;;;;;;;6.53;5.90;;;;;;;;;;4952927;28;20236;-30
2022/06/04 12:49:06;;;;;;;7.32;6.63;;;;;;;;;;4953867;28;20317;-27
2022/06/04 12:51:53;;;;;;;6.85;5.88;;;;;;;;;;4962305;28;20215;-30
2022/06/04 12:54:26;;;;;;;5.95;5.40;;;;;;;;;;4973712;28;20189;-32
2022/06/04 12:56:55;;;;;;;8.65;6.50;;;;;;;;;;4961742;28;20234;-28
2022/06/04 12:59:28;;;;;;;5.75;5.28;;;;;;;;;;4961007;28;20208;-31
2022/06/04 13:01:55;;;;;;;6.88;6.28;;;;;;;;;;4954788;28;20271;-29
2022/06/04 13:04:25;;;;;;;7.40;6.70;;;;;;;;;;4967204;28;20212;-30
2022/06/04 13:06:55;;;;;;;6.40;5.75;;;;;;;;;;4963586;28;20237;-28
2022/06/04 13:09:32;;;;;;;6.88;6.28;;;;;;;;;;4971385;28;20228;-28
2022/06/04 13:12:05;;;;;;;6.05;5.57;;;;;;;;;;4954197;28;20201;-28
2022/06/04 13:14:37;;;;;;;6.50;5.97;;;;;;;;;;4961985;28;20197;-30
2022/06/04 13:17:21;;;;;;;6.68;6.05;;;;;;;;;;4958167;28;20311;-30
2022/06/04 13:20:01;;;;;;;6.55;5.32;;;;;;;;;;4956691;28;20209;-28
2022/06/04 13:22:30;;;;;;;6.45;5.85;;;;;;;;;;4970390;28;20220;-30
2022/06/04 13:24:58;;;;;;;5.80;5.40;;;;;;;;;;4956966;28;20205;-31
2022/06/04 13:27:35;;;;;;;5.63;5.03;;;;;;;;;;4966911;28;20279;-28
2022/06/04 13:30:02;;;;;;;5.38;4.93;;;;;;;;;;4954972;28;20233;-30
2022/06/04 13:32:33;;;;;;;5.40;4.68;;;;;;;;;;4961864;28;20214;-27
2022/06/04 13:35:04;;;;;;;5.40;5.00;;;;;;;;;;4965444;28;20209;-27
2022/06/04 13:37:33;;;;;;;5.45;4.95;;;;;;;;;;4973493;28;20236;-29
2022/06/04 13:40:02;;;;;;;5.00;4.65;;;;;;;;;;4962598;28;20209;-32
2022/06/04 13:42:32;;;;;;;5.00;4.50;;;;;;;;;;4953283;28;20233;-31
2022/06/04 13:45:01;;;;;;;4.68;4.28;;;;;;;;;;4953314;29;20210;-26
2022/06/04 13:47:29;;;;;;;5.18;4.68;;;;;;;;;;4955995;28;20225;-30
2022/06/04 13:50:11;;;;;;;4.57;4.28;;;;;;;;;;4960329;28;20229;-30
2022/06/04 13:52:42;;;;;;;5.63;5.13;;;;;;;;;;4953516;28;20201;-30
2022/06/04 13:55:11;;;;;;;5.13;4.47;;;;;;;;;;4952303;28;20213;-31
2022/06/04 13:57:40;;;;;;;4.93;4.53;;;;;;;;;;4966422;28;20228;-27
2022/06/04 14:00:09;;;;;;;4.70;4.28;;;;;;;;;;4960408;28;20206;-30
2022/06/04 14:02:36;;;;;;;5.05;4.55;;;;;;;;;;4955398;28;20225;-29
2022/06/04 14:07:52;;;;;;;5.40;3.53;;;;;;;;;;4958722;28;20280;-32
2022/06/04 14:10:20;;;;;;;4.45;4.15;;;;;;;;;;4966664;28;20213;-32
2022/06/04 14:13:08;;;;;;;5.93;4.07;;;;;;;;;;4966722;28;20440;-28
2022/06/04 14:15:47;;;;;;;4.60;4.20;;;;;;;;;;4971753;28;20201;-29
2022/06/04 14:18:22;;;;;;;4.07;3.30;;;;;;;;;;4957340;28;20209;-27
2022/06/04 14:20:57;;;;;;;3.65;3.33;;;;;;;;;;4966855;28;20209;-33
2022/06/04 14:23:31;;;;;;;3.67;3.20;;;;;;;;;;4976889;28;20216;-28
2022/06/04 14:26:01;;;;;;;3.78;3.47;;;;;;;;;;4961823;28;20229;-27
2022/06/04 14:28:33;;;;;;;3.25;3.05;;;;;;;;;;4964529;28;20290;-32
2022/06/04 14:31:05;;;;;;;3.15;2.90;;;;;;;;;;4957616;28;20203;-28
2022/06/04 14:33:32;;;;;;;3.50;2.92;;;;;;;;;;4966144;28;20205;-29
2022/06/04 14:36:02;;;;;;;3.30;3.10;;;;;;;;;;4966251;28;20317;-27
2022/06/04 14:38:31;;;;;;;4.30;3.33;;;;;;;;;;4974564;28;20213;-30
2022/06/04 14:41:02;;;;;;;3.13;2.72;;;;;;;;;;4971274;28;20236;-29
2022/06/04 14:43:41;;;;;;;3.17;2.88;;;;;;;;;;4956429;28;20230;-31
2022/06/04 14:46:15;;;;;;;5.72;3.30;;;;;;;;;;4959330;28;20307;-30
2022/06/04 14:49:01;;;;;;;3.50;3.20;;;;;;;;;;4970960;28;20220;-28
2022/06/04 14:51:38;;;;;;;3.65;3.30;;;;;;;;;;4971867;28;20213;-27
2022/06/04 14:54:07;;;;;;;3.28;2.97;;;;;;;;;;4963916;28;20293;-30
2022/06/04 14:56:42;;;;;;;3.10;2.90;;;;;;;;;;4970431;28;20230;-31
2022/06/04 14:59:21;;;;;;;3.25;3.03;;;;;;;;;;4955968;28;20209;-27
2022/06/04 15:01:54;;;;;;;3.15;2.85;;;;;;;;;;4957945;28;20254;-28
2022/06/04 15:04:31;;;;;;;3.50;3.20;;;;;;;;;;4968447;28;20229;-30
2022/06/04 15:07:05;;;;;;;3.75;2.90;;;;;;;;;;4967815;28;20243;-30
2022/06/04 15:09:44;;;;;;;4.55;3.20;;;;;;;;;;4968649;28;20208;-27
2022/06/04 15:12:29;;;;;;;3.47;2.63;;;;;;;;;;4969886;28;20249;-32
2022/06/04 15:15:09;;;;;;;2.75;2.53;;;;;;;;;;4955689;28;20205;-30
2022/06/04 15:17:44;;;;;;;2.80;2.60;;;;;;;;;;4961254;28;20225;-32
2022/06/04 15:20:16;;;;;;;3.55;3.25;;;;;;;;;;4964683;28;20207;-26
2022/06/04 15:23:02;;;;;;;7.75;3.30;;;;;;;;;;4973811;28;20210;-31
2022/06/04 15:25:37;;;;;;;3.35;3.00;;;;;;;;;;4957078;28;20271;-29
2022/06/04 15:28:08;;;;;;;3.17;2.97;;;;;;;;;;4969995;28;20209;-33